createdAt,value
2023-05-25T00:01:03.605Z,66396.34
2023-05-25T00:06:10.461Z,66399.09
2023-05-25T00:11:14.745Z,66396.41
2023-05-25T00:16:20.271Z,66401.25
2023-05-25T00:21:25.787Z,66415.75
2023-05-25T00:26:29.820Z,66441.00
2023-05-25T00:31:35.617Z,66488.19
2023-05-25T00:36:39.981Z,66489.88
2023-05-25T00:41:45.780Z,66488.72
2023-05-25T00:46:53.614Z,66524.16
2023-05-25T00:51:59.339Z,66472.53
2023-05-25T00:57:05.335Z,66521.50
2023-05-25T01:02:13.553Z,66514.13
2023-05-25T01:07:22.279Z,66489.34
2023-05-25T01:12:28.527Z,66592.00
2023-05-25T01:17:38.312Z,66495.31
2023-05-25T01:22:49.167Z,66569.31
2023-05-25T01:27:58.963Z,66575.78
2023-05-25T01:33:03.480Z,66522.09
2023-05-25T01:38:10.939Z,66587.06
2023-05-25T01:43:17.961Z,66510.22
2023-05-25T01:48:31.607Z,66574.72
2023-05-25T01:53:39.997Z,66531.16
2023-05-25T01:58:46.665Z,66526.31
2023-05-25T02:03:51.699Z,66551.66
2023-05-25T02:08:57.331Z,66531.09
2023-05-25T02:14:02.452Z,66538.69
2023-05-25T02:19:06.608Z,66592.00
2023-05-25T02:24:12.534Z,66517.72
2023-05-25T02:29:16.544Z,66585.00
2023-05-25T02:34:20.850Z,66498.47
2023-05-25T02:39:27.874Z,66562.44
2023-05-25T02:44:33.868Z,66462.47
2023-05-25T02:49:38.059Z,66456.66
2023-05-25T02:54:43.629Z,66568.34
2023-05-25T02:59:54.259Z,66491.56
2023-05-25T03:04:58.505Z,66537.16
2023-05-25T03:10:04.039Z,66465.72
2023-05-25T03:15:13.263Z,66519.88
2023-05-25T03:20:17.994Z,66488.78
2023-05-25T03:25:26.541Z,66505.91
2023-05-25T03:30:31.534Z,66541.44
2023-05-25T03:35:36.025Z,66547.81
2023-05-25T03:40:41.584Z,66575.31
2023-05-25T03:45:46.374Z,66602.19
2023-05-25T03:50:51.350Z,66469.53
2023-05-25T03:55:56.952Z,66540.31
2023-05-25T04:01:02.013Z,66582.25
2023-05-25T04:06:07.582Z,66511.97
2023-05-25T04:11:13.277Z,66532.78
2023-05-25T04:16:18.073Z,66549.44
2023-05-25T04:21:23.083Z,66472.59
2023-05-25T04:26:29.027Z,66464.72
2023-05-25T04:31:34.428Z,66427.03
2023-05-25T04:36:52.696Z,66488.25
2023-05-25T04:42:01.814Z,66511.81
2023-05-25T04:47:07.440Z,66452.72
2023-05-25T04:52:14.374Z,66461.84
2023-05-25T04:57:23.613Z,66438.38
2023-05-25T05:02:31.439Z,66430.72
2023-05-25T05:07:39.920Z,66460.78
2023-05-25T05:12:49.145Z,66428.72
2023-05-25T05:17:55.847Z,66499.63
2023-05-25T05:23:01.567Z,66579.09
2023-05-25T05:28:07.072Z,66561.88
2023-05-25T05:33:16.247Z,66529.63
2023-05-25T05:38:24.562Z,66491.94
2023-05-25T05:43:30.030Z,66514.97
2023-05-25T05:48:34.306Z,66606.50
2023-05-25T05:53:38.483Z,66571.63
2023-05-25T05:58:43.956Z,66579.72
2023-05-25T06:03:48.136Z,66576.31
2023-05-25T06:08:52.442Z,66622.09
2023-05-25T06:13:58.046Z,66693.66
2023-05-25T06:19:02.055Z,66665.19
2023-05-25T06:24:07.242Z,66610.19
2023-05-25T06:29:14.192Z,66601.59
2023-05-25T06:34:20.600Z,66566.72
2023-05-25T06:39:24.795Z,66567.28
2023-05-25T06:44:30.716Z,66521.56
2023-05-25T06:49:38.615Z,66494.16
2023-05-25T06:54:42.830Z,66632.16
2023-05-25T06:59:48.497Z,66509.13
2023-05-25T07:04:52.810Z,66553.81
2023-05-25T07:09:57.135Z,66512.97
2023-05-25T07:15:02.553Z,66527.47
2023-05-25T07:20:07.839Z,66609.19
2023-05-25T07:25:12.155Z,66583.31
2023-05-25T07:30:17.924Z,66656.56
2023-05-25T07:35:21.782Z,66631.38
2023-05-25T07:40:25.957Z,66654.34
2023-05-25T07:45:31.347Z,66615.03
2023-05-25T07:50:35.394Z,66767.91
2023-05-25T07:55:39.628Z,66718.38
2023-05-25T08:00:45.088Z,66646.34
2023-05-25T08:05:49.179Z,66679.63
2023-05-25T08:10:53.954Z,66673.72
2023-05-25T08:15:59.749Z,66661.97
2023-05-25T08:21:03.701Z,66752.44
2023-05-25T08:26:20.388Z,66665.03
2023-05-25T08:31:33.712Z,66821.59
2023-05-25T08:36:38.804Z,66748.53
2023-05-25T08:41:45.369Z,66759.13
2023-05-25T08:46:50.936Z,66813.13
2023-05-25T08:51:56.773Z,66723.31
2023-05-25T08:57:07.283Z,66839.91
2023-05-25T09:02:22.748Z,66825.06
2023-05-25T09:07:27.750Z,66708.69
2023-05-25T09:12:32.887Z,66774.34
2023-05-25T09:17:38.606Z,66812.50
2023-05-25T09:22:43.092Z,66796.97
2023-05-25T09:27:47.405Z,66758.28
2023-05-25T09:32:52.926Z,66692.56
2023-05-25T09:37:57.232Z,66697.34
2023-05-25T09:43:01.623Z,66781.88
2023-05-25T09:48:08.228Z,66714.53
2023-05-25T09:53:13.924Z,66755.59
2023-05-25T09:58:18.279Z,66759.34
2023-05-25T10:03:24.156Z,66842.13
2023-05-25T10:08:29.301Z,66815.81
2023-05-25T10:13:34.820Z,66732.38
2023-05-25T10:18:45.429Z,66746.97
2023-05-25T10:23:53.974Z,66820.13
2023-05-25T10:29:01.698Z,66736.22
2023-05-25T10:34:12.668Z,66775.44
2023-05-25T10:39:18.338Z,66821.81
2023-05-25T10:44:22.668Z,66896.66
2023-05-25T10:49:35.460Z,66813.75
2023-05-25T10:54:40.560Z,66822.81
2023-05-25T10:59:45.728Z,66872.75
2023-05-25T11:05:17.710Z,66817.44
2023-05-25T11:11:08.341Z,66879.44
2023-05-25T11:16:22.955Z,66875.00
2023-05-25T11:21:50.946Z,66888.59
2023-05-25T11:32:51.480Z,66912.69
2023-05-25T11:38:00.563Z,67049.72
2023-05-25T11:43:09.701Z,67041.78
2023-05-25T11:48:16.368Z,67003.88
2023-05-25T11:53:36.509Z,66976.44
2023-05-25T12:06:28.036Z,66914.38
2023-05-25T12:11:34.908Z,66988.28
2023-05-25T12:16:40.909Z,66957.56
2023-05-25T12:21:45.854Z,66948.34
2023-05-25T12:26:57.828Z,66979.06
2023-05-25T12:32:05.721Z,67076.88
2023-05-25T12:37:20.077Z,67091.91
2023-05-25T12:42:27.680Z,66997.47
2023-05-25T12:47:32.497Z,66981.31
2023-05-25T12:52:38.332Z,66975.84
2023-05-25T12:57:43.717Z,66910.53
2023-05-25T13:02:49.587Z,66870.22
2023-05-25T13:07:57.145Z,67026.44
2023-05-25T13:13:03.959Z,67008.19
2023-05-25T13:18:08.054Z,66918.25
2023-05-25T13:23:12.217Z,66883.28
2023-05-25T13:28:17.794Z,66993.81
2023-05-25T13:33:21.754Z,66996.94
2023-05-25T13:38:26.146Z,66937.56
2023-05-25T13:43:32.075Z,66904.22
2023-05-25T13:48:36.255Z,66991.88
2023-05-25T13:53:40.343Z,66954.81
2023-05-25T13:58:45.905Z,67002.25
2023-05-25T14:03:50.145Z,67027.59
2023-05-25T14:08:54.445Z,66953.34
2023-05-25T14:14:00.015Z,67004.53
2023-05-25T14:19:04.359Z,66951.13
2023-05-25T14:24:08.556Z,66911.28
2023-05-25T14:29:14.102Z,66868.03
2023-05-25T14:34:18.168Z,66952.19
2023-05-25T14:39:22.312Z,66869.22
2023-05-25T14:44:27.824Z,66974.75
2023-05-25T14:49:32.469Z,66893.38
2023-05-25T14:54:36.483Z,66914.44
2023-05-25T14:59:41.976Z,66886.91
2023-05-25T15:04:47.761Z,66909.00
2023-05-25T15:09:52.079Z,66905.28
2023-05-25T15:14:57.587Z,66874.53
2023-05-25T15:20:02.138Z,66914.91
2023-05-25T15:25:09.382Z,66987.22
2023-05-25T15:30:15.097Z,66877.13
2023-05-25T15:35:18.972Z,67083.69
2023-05-25T15:40:22.849Z,67063.72
2023-05-25T15:45:28.145Z,67047.56
2023-05-25T15:50:32.162Z,67104.78
2023-05-25T15:55:36.597Z,67002.31
2023-05-25T16:00:42.062Z,66985.53
2023-05-25T16:05:47.978Z,66961.75
2023-05-25T16:10:51.920Z,66910.09
2023-05-25T16:15:57.286Z,66906.91
2023-05-25T16:21:01.435Z,67013.56
2023-05-25T16:26:06.093Z,66968.28
2023-05-25T16:31:12.311Z,66857.75
2023-05-25T16:36:17.201Z,66848.22
2023-05-25T16:41:21.410Z,66865.28
2023-05-25T16:46:26.967Z,66865.50
2023-05-25T16:51:30.745Z,66941.97
2023-05-25T16:56:35.658Z,66832.50
2023-05-25T17:01:41.114Z,66863.75
2023-05-25T17:06:45.228Z,66828.81
2023-05-25T17:11:50.368Z,66864.81
2023-05-25T17:16:56.698Z,66812.03
2023-05-25T17:22:00.895Z,66770.03
2023-05-25T17:27:05.420Z,66769.56
2023-05-25T17:32:10.909Z,66751.66
2023-05-25T17:37:14.891Z,66780.28
2023-05-25T17:42:18.850Z,66726.53
2023-05-25T17:47:25.612Z,66679.19
2023-05-25T17:52:31.496Z,66701.09
2023-05-25T17:57:35.451Z,66705.63
2023-05-25T18:02:41.047Z,66681.41
2023-05-25T18:07:45.350Z,66746.97
2023-05-25T18:12:52.207Z,66667.88
2023-05-25T18:17:57.588Z,66689.50
2023-05-25T18:23:03.353Z,66650.66
2023-05-25T18:28:07.341Z,66661.97
2023-05-25T18:33:12.824Z,66682.88
2023-05-25T18:38:16.784Z,66612.03
2023-05-25T18:43:20.716Z,66683.31
2023-05-25T18:48:26.584Z,66681.25
2023-05-25T18:53:30.545Z,66676.09
2023-05-25T18:58:34.590Z,66684.63
2023-05-25T19:03:39.997Z,66717.84
2023-05-25T19:08:44.271Z,66806.72
2023-05-25T19:13:48.242Z,66770.03
2023-05-25T19:18:53.595Z,66769.03
2023-05-25T19:23:58.038Z,66607.66
2023-05-25T19:29:01.997Z,66595.84
2023-05-25T19:34:07.562Z,66656.03
2023-05-25T19:39:11.652Z,66667.25
2023-05-25T19:44:16.050Z,66757.75
2023-05-25T19:49:21.632Z,66627.09
2023-05-25T19:54:25.583Z,66658.75
2023-05-25T19:59:30.384Z,66627.63
2023-05-25T20:04:35.732Z,66600.59
2023-05-25T20:09:40.031Z,66745.84
2023-05-25T20:14:45.190Z,66778.19
2023-05-25T20:19:50.475Z,66798.13
2023-05-25T20:24:58.077Z,66786.75
2023-05-25T20:30:02.056Z,66859.44
2023-05-25T20:35:08.230Z,66876.28
2023-05-25T20:40:12.349Z,66785.75
2023-05-25T20:45:16.505Z,66797.09
2023-05-25T20:50:21.811Z,66811.03
2023-05-25T20:55:26.762Z,66685.63
2023-05-25T21:00:30.727Z,66828.81
2023-05-25T21:05:38.179Z,66763.59
2023-05-25T21:10:42.292Z,66744.75
2023-05-25T21:15:46.456Z,66644.13
2023-05-25T21:20:51.984Z,66626.03
2023-05-25T21:25:55.962Z,66616.28
2023-05-25T21:31:00.302Z,66663.56
2023-05-25T21:36:05.909Z,66681.78
2023-05-25T21:41:09.905Z,66703.88
2023-05-25T21:46:14.108Z,66677.47
2023-05-25T21:51:19.590Z,66625.38
2023-05-25T21:56:24.110Z,66751.38
2023-05-25T22:01:28.047Z,66638.31
2023-05-25T22:06:33.973Z,66602.34
2023-05-25T22:11:38.686Z,66631.91
2023-05-25T22:16:43.184Z,66657.50
2023-05-25T22:21:48.493Z,66615.19
2023-05-25T22:26:53.212Z,66553.81
2023-05-25T22:31:57.233Z,66603.44
2023-05-25T22:37:02.730Z,66637.69
2023-05-25T22:42:07.257Z,66705.09
2023-05-25T22:47:11.195Z,66595.38
2023-05-25T22:52:16.696Z,66635.69
2023-05-25T22:57:20.717Z,66620.50
2023-05-25T23:02:24.726Z,66632.91
2023-05-25T23:07:30.158Z,66566.72
2023-05-25T23:12:34.182Z,66544.13
2023-05-25T23:17:38.356Z,66576.38
2023-05-25T23:22:44.088Z,66583.47
2023-05-25T23:27:48.021Z,66525.94
2023-05-25T23:32:51.911Z,66569.41
2023-05-25T23:37:57.772Z,66556.66
2023-05-25T23:43:01.780Z,66583.47
2023-05-25T23:48:05.813Z,66542.16
2023-05-25T23:53:11.448Z,66622.63
2023-05-25T23:58:15.703Z,66622.63
